Cookville, Texas
Current Conditions -  °F | °C
As of 9:55 AM on Friday 19 Dec 2014 (Local Time) from KOSA Reporting Station
Overcast Overcast  
Wind Chill: 40°   Ceiling: 500
Heat Index: 45°   Visibility: 3mi
Dew Point: 44°   Wind: 8mph
Humidity: 98%   Direction: 40°NE
Pressure: 30.23"   Gusts: NA
Location:  33.19°N, 94.85°W
Report Text: KOSA 191555Z AUTO 04007KT 3SM OVC005 07/07 A3023 RMK AO1 P0002 T00710068
Loading
Personal Weather Stations






























Interactive Weather Map New forecast layout! Learn more

10-Day Weather Forecast

Advertisements
Track Severe Weather on mobile